sensor_id;sensor_type;location;lat;lon;timestamp;temperature;humidity
8780;DHT22;62328;51.19929245;4.42130175;2023-06-22T00:02:22;21.70;99.90
8780;DHT22;62328;51.19929245;4.42130175;2023-06-22T00:04:50;21.60;99.90
8780;DHT22;62328;51.19929245;4.42130175;2023-06-22T00:07:17;21.60;99.90
8780;DHT22;62328;51.19929245;4.42130175;2023-06-22T00:09:44;21.60;99.90
8780;DHT22;62328;51.19929245;4.42130175;2023-06-22T00:12:12;21.60;99.90
8780;DHT22;62328;51.19929245;4.42130175;2023-06-22T00:14:40;21.60;99.90
8780;DHT22;62328;51.19929245;4.42130175;2023-06-22T00:17:07;21.60;99.90
8780;DHT22;62328;51.19929245;4.42130175;2023-06-22T00:19:34;21.60;99.90
8780;DHT22;62328;51.19929245;4.42130175;2023-06-22T00:22:02;21.60;99.90
8780;DHT22;62328;51.19929245;4.42130175;2023-06-22T00:24:30;21.70;99.90
8780;DHT22;62328;51.19929245;4.42130175;2023-06-22T00:26:57;21.60;99.90
8780;DHT22;62328;51.19929245;4.42130175;2023-06-22T00:29:25;21.60;99.90
8780;DHT22;62328;51.19929245;4.42130175;2023-06-22T00:31:52;21.60;99.90
8780;DHT22;62328;51.19929245;4.42130175;2023-06-22T00:34:20;21.50;99.90
8780;DHT22;62328;51.19929245;4.42130175;2023-06-22T00:36:47;21.50;99.90
8780;DHT22;62328;51.19929245;4.42130175;2023-06-22T00:39:18;21.50;99.90
8780;DHT22;62328;51.19929245;4.42130175;2023-06-22T00:41:45;21.50;99.90
8780;DHT22;62328;51.19929245;4.42130175;2023-06-22T00:44:12;21.50;99.90
8780;DHT22;62328;51.19929245;4.42130175;2023-06-22T00:46:43;21.40;99.90
8780;DHT22;62328;51.19929245;4.42130175;2023-06-22T00:49:11;21.40;99.90
8780;DHT22;62328;51.19929245;4.42130175;2023-06-22T00:51:38;21.40;99.90
8780;DHT22;62328;51.19929245;4.42130175;2023-06-22T00:54:13;21.30;99.90
8780;DHT22;62328;51.19929245;4.42130175;2023-06-22T00:56:43;21.30;99.90
8780;DHT22;62328;51.19929245;4.42130175;2023-06-22T00:59:11;21.30;99.90
8780;DHT22;62328;51.19929245;4.42130175;2023-06-22T01:01:39;21.30;99.90
8780;DHT22;62328;51.19929245;4.42130175;2023-06-22T01:04:08;21.30;99.90
8780;DHT22;62328;51.19929245;4.42130175;2023-06-22T01:06:41;21.30;99.90
8780;DHT22;62328;51.19929245;4.42130175;2023-06-22T01:09:15;21.30;99.90
8780;DHT22;62328;51.19929245;4.42130175;2023-06-22T01:11:51;21.30;99.90
8780;DHT22;62328;51.19929245;4.42130175;2023-06-22T01:14:24;21.20;99.90
8780;DHT22;62328;51.19929245;4.42130175;2023-06-22T01:16:57;21.20;99.90
8780;DHT22;62328;51.19929245;4.42130175;2023-06-22T01:19:45;21.20;99.90
8780;DHT22;62328;51.19929245;4.42130175;2023-06-22T01:22:16;21.20;99.90
8780;DHT22;62328;51.19929245;4.42130175;2023-06-22T01:24:51;21.20;99.90
8780;DHT22;62328;51.19929245;4.42130175;2023-06-22T01:27:32;21.20;99.90
8780;DHT22;62328;51.19929245;4.42130175;2023-06-22T01:30:02;21.10;99.90
8780;DHT22;62328;51.19929245;4.42130175;2023-06-22T01:32:32;21.20;99.90
8780;DHT22;62328;51.19929245;4.42130175;2023-06-22T01:35:01;21.10;99.90
8780;DHT22;62328;51.19929245;4.42130175;2023-06-22T01:37:29;21.10;99.90
8780;DHT22;62328;51.19929245;4.42130175;2023-06-22T01:39:58;21.10;99.90
8780;DHT22;62328;51.19929245;4.42130175;2023-06-22T01:42:27;21.10;99.90
8780;DHT22;62328;51.19929245;4.42130175;2023-06-22T01:44:56;21.10;99.90
8780;DHT22;62328;51.19929245;4.42130175;2023-06-22T01:47:25;21.10;99.90
8780;DHT22;62328;51.19929245;4.42130175;2023-06-22T01:49:53;21.10;99.90
8780;DHT22;62328;51.19929245;4.42130175;2023-06-22T01:52:21;21.10;99.90
8780;DHT22;62328;51.19929245;4.42130175;2023-06-22T01:54:49;21.10;99.90
8780;DHT22;62328;51.19929245;4.42130175;2023-06-22T01:57:16;21.00;99.90
8780;DHT22;62328;51.19929245;4.42130175;2023-06-22T01:59:48;21.00;99.90
8780;DHT22;62328;51.19929245;4.42130175;2023-06-22T02:02:21;21.10;99.90
8780;DHT22;62328;51.19929245;4.42130175;2023-06-22T02:04:58;21.10;99.90
8780;DHT22;62328;51.19929245;4.42130175;2023-06-22T02:07:31;21.00;99.90
8780;DHT22;62328;51.19929245;4.42130175;2023-06-22T02:10:00;21.00;99.90
8780;DHT22;62328;51.19929245;4.42130175;2023-06-22T02:12:30;21.00;99.90
8780;DHT22;62328;51.19929245;4.42130175;2023-06-22T02:14:58;21.00;99.90
8780;DHT22;62328;51.19929245;4.42130175;2023-06-22T02:17:26;21.00;99.90
8780;DHT22;62328;51.19929245;4.42130175;2023-06-22T02:19:53;21.00;99.90
8780;DHT22;62328;51.19929245;4.42130175;2023-06-22T02:22:22;21.00;99.90
8780;DHT22;62328;51.19929245;4.42130175;2023-06-22T02:24:49;20.90;99.90
8780;DHT22;62328;51.19929245;4.42130175;2023-06-22T02:27:16;20.90;99.90
8780;DHT22;62328;51.19929245;4.42130175;2023-06-22T02:29:43;20.90;99.90
8780;DHT22;62328;51.19929245;4.42130175;2023-06-22T02:32:10;20.90;99.90
8780;DHT22;62328;51.19929245;4.42130175;2023-06-22T02:34:37;20.90;99.90
8780;DHT22;62328;51.19929245;4.42130175;2023-06-22T02:37:04;20.90;99.90
8780;DHT22;62328;51.19929245;4.42130175;2023-06-22T02:39:33;20.90;99.90
8780;DHT22;62328;51.19929245;4.42130175;2023-06-22T02:42:00;20.90;99.90
8780;DHT22;62328;51.19929245;4.42130175;2023-06-22T02:44:27;20.80;99.90
8780;DHT22;62328;51.19929245;4.42130175;2023-06-22T02:46:55;20.80;99.90
8780;DHT22;62328;51.19929245;4.42130175;2023-06-22T02:49:23;20.80;99.90
8780;DHT22;62328;51.19929245;4.42130175;2023-06-22T02:51:50;20.80;99.90
8780;DHT22;62328;51.19929245;4.42130175;2023-06-22T02:54:17;20.80;99.90
8780;DHT22;62328;51.19929245;4.42130175;2023-06-22T02:56:45;20.70;99.90
8780;DHT22;62328;51.19929245;4.42130175;2023-06-22T02:59:13;20.80;99.90
8780;DHT22;62328;51.19929245;4.42130175;2023-06-22T03:01:41;20.80;99.90
8780;DHT22;62328;51.19929245;4.42130175;2023-06-22T03:04:08;20.70;99.90
8780;DHT22;62328;51.19929245;4.42130175;2023-06-22T03:06:35;20.70;99.90
8780;DHT22;62328;51.19929245;4.42130175;2023-06-22T03:09:04;20.70;99.90
8780;DHT22;62328;51.19929245;4.42130175;2023-06-22T03:11:32;20.70;99.90
8780;DHT22;62328;51.19929245;4.42130175;2023-06-22T03:14:01;20.70;99.90
8780;DHT22;62328;51.19929245;4.42130175;2023-06-22T03:16:28;20.70;99.90
8780;DHT22;62328;51.19929245;4.42130175;2023-06-22T03:18:55;20.70;99.90
8780;DHT22;62328;51.19929245;4.42130175;2023-06-22T03:21:23;20.70;99.90
8780;DHT22;62328;51.19929245;4.42130175;2023-06-22T03:23:50;20.60;99.90
8780;DHT22;62328;51.19929245;4.42130175;2023-06-22T03:26:18;20.60;99.90
8780;DHT22;62328;51.19929245;4.42130175;2023-06-22T03:28:46;20.60;99.90
8780;DHT22;62328;51.19929245;4.42130175;2023-06-22T03:31:15;20.60;99.90
8780;DHT22;62328;51.19929245;4.42130175;2023-06-22T03:33:47;20.60;99.90
8780;DHT22;62328;51.19929245;4.42130175;2023-06-22T03:36:15;20.60;99.90
8780;DHT22;62328;51.19929245;4.42130175;2023-06-22T03:38:44;20.60;99.90
8780;DHT22;62328;51.19929245;4.42130175;2023-06-22T03:41:11;20.60;99.90
8780;DHT22;62328;51.19929245;4.42130175;2023-06-22T03:43:39;20.60;99.90
8780;DHT22;62328;51.19929245;4.42130175;2023-06-22T03:46:07;20.60;99.90
8780;DHT22;62328;51.19929245;4.42130175;2023-06-22T03:48:35;20.60;99.90
8780;DHT22;62328;51.19929245;4.42130175;2023-06-22T03:51:02;20.60;99.90
8780;DHT22;62328;51.19929245;4.42130175;2023-06-22T03:53:30;20.60;99.90
8780;DHT22;62328;51.19929245;4.42130175;2023-06-22T03:55:57;20.50;99.90
8780;DHT22;62328;51.19929245;4.42130175;2023-06-22T03:58:24;20.60;99.90
8780;DHT22;62328;51.19929245;4.42130175;2023-06-22T04:00:52;20.50;99.90
8780;DHT22;62328;51.19929245;4.42130175;2023-06-22T04:03:20;20.50;99.90
8780;DHT22;62328;51.19929245;4.42130175;2023-06-22T04:05:48;20.50;99.90
8780;DHT22;62328;51.19929245;4.42130175;2023-06-22T04:08:15;20.50;99.90
8780;DHT22;62328;51.19929245;4.42130175;2023-06-22T04:10:42;20.50;99.90
8780;DHT22;62328;51.19929245;4.42130175;2023-06-22T04:13:09;20.50;99.90
8780;DHT22;62328;51.19929245;4.42130175;2023-06-22T04:15:36;20.50;99.90
8780;DHT22;62328;51.19929245;4.42130175;2023-06-22T04:18:04;20.50;99.90
8780;DHT22;62328;51.19929245;4.42130175;2023-06-22T04:20:31;20.50;99.90
8780;DHT22;62328;51.19929245;4.42130175;2023-06-22T04:23:00;20.50;99.90
8780;DHT22;62328;51.19929245;4.42130175;2023-06-22T04:25:27;20.50;99.90
8780;DHT22;62328;51.19929245;4.42130175;2023-06-22T04:27:54;20.50;99.90
8780;DHT22;62328;51.19929245;4.42130175;2023-06-22T04:30:21;20.50;99.90
8780;DHT22;62328;51.19929245;4.42130175;2023-06-22T04:32:49;20.50;99.90
8780;DHT22;62328;51.19929245;4.42130175;2023-06-22T04:35:22;20.50;99.90
8780;DHT22;62328;51.19929245;4.42130175;2023-06-22T04:37:49;20.50;99.90
8780;DHT22;62328;51.19929245;4.42130175;2023-06-22T04:40:21;20.50;99.90
8780;DHT22;62328;51.19929245;4.42130175;2023-06-22T04:42:49;20.50;99.90
8780;DHT22;62328;51.19929245;4.42130175;2023-06-22T04:45:19;20.50;99.90
8780;DHT22;62328;51.19929245;4.42130175;2023-06-22T04:47:47;20.50;99.90
8780;DHT22;62328;51.19929245;4.42130175;2023-06-22T04:50:14;20.50;99.90
8780;DHT22;62328;51.19929245;4.42130175;2023-06-22T04:52:41;20.60;99.90
8780;DHT22;62328;51.19929245;4.42130175;2023-06-22T04:55:08;20.60;99.90
8780;DHT22;62328;51.19929245;4.42130175;2023-06-22T04:57:36;20.60;99.90
8780;DHT22;62328;51.19929245;4.42130175;2023-06-22T05:00:06;20.60;99.90
8780;DHT22;62328;51.19929245;4.42130175;2023-06-22T05:02:43;20.60;99.90
8780;DHT22;62328;51.19929245;4.42130175;2023-06-22T05:05:10;20.60;99.90
8780;DHT22;62328;51.19929245;4.42130175;2023-06-22T05:07:39;20.60;99.90
8780;DHT22;62328;51.19929245;4.42130175;2023-06-22T05:10:09;20.70;99.90
8780;DHT22;62328;51.19929245;4.42130175;2023-06-22T05:12:38;20.70;99.90
8780;DHT22;62328;51.19929245;4.42130175;2023-06-22T05:15:07;20.70;99.90
8780;DHT22;62328;51.19929245;4.42130175;2023-06-22T05:17:36;20.70;99.90
8780;DHT22;62328;51.19929245;4.42130175;2023-06-22T05:20:09;20.80;99.90
8780;DHT22;62328;51.19929245;4.42130175;2023-06-22T05:22:39;20.80;99.90
8780;DHT22;62328;51.19929245;4.42130175;2023-06-22T05:25:08;20.90;99.90
8780;DHT22;62328;51.19929245;4.42130175;2023-06-22T05:27:37;21.00;99.90
8780;DHT22;62328;51.19929245;4.42130175;2023-06-22T05:30:06;21.10;99.90
8780;DHT22;62328;51.19929245;4.42130175;2023-06-22T05:32:33;21.20;99.90
8780;DHT22;62328;51.19929245;4.42130175;2023-06-22T05:35:00;21.30;99.90
8780;DHT22;62328;51.19929245;4.42130175;2023-06-22T05:37:28;21.40;99.90
8780;DHT22;62328;51.19929245;4.42130175;2023-06-22T05:39:55;21.50;99.90
8780;DHT22;62328;51.19929245;4.42130175;2023-06-22T05:42:23;21.50;99.90
8780;DHT22;62328;51.19929245;4.42130175;2023-06-22T05:44:52;21.60;99.90
8780;DHT22;62328;51.19929245;4.42130175;2023-06-22T05:47:20;21.60;99.90
8780;DHT22;62328;51.19929245;4.42130175;2023-06-22T05:49:48;21.70;99.90
8780;DHT22;62328;51.19929245;4.42130175;2023-06-22T05:52:15;21.70;99.90
8780;DHT22;62328;51.19929245;4.42130175;2023-06-22T05:54:43;21.80;99.90
8780;DHT22;62328;51.19929245;4.42130175;2023-06-22T05:57:13;21.80;99.90
8780;DHT22;62328;51.19929245;4.42130175;2023-06-22T05:59:40;21.90;99.90
8780;DHT22;62328;51.19929245;4.42130175;2023-06-22T06:02:08;21.90;99.90
8780;DHT22;62328;51.19929245;4.42130175;2023-06-22T06:04:35;21.90;99.90
8780;DHT22;62328;51.19929245;4.42130175;2023-06-22T06:07:03;22.00;99.90
8780;DHT22;62328;51.19929245;4.42130175;2023-06-22T06:09:30;22.00;99.90
8780;DHT22;62328;51.19929245;4.42130175;2023-06-22T06:11:58;22.00;99.90
8780;DHT22;62328;51.19929245;4.42130175;2023-06-22T06:14:25;22.10;99.90
8780;DHT22;62328;51.19929245;4.42130175;2023-06-22T06:16:52;22.10;99.90
8780;DHT22;62328;51.19929245;4.42130175;2023-06-22T06:19:21;22.10;99.90
8780;DHT22;62328;51.19929245;4.42130175;2023-06-22T06:21:48;22.10;99.90
8780;DHT22;62328;51.19929245;4.42130175;2023-06-22T06:24:16;22.20;99.90
8780;DHT22;62328;51.19929245;4.42130175;2023-06-22T06:26:43;22.20;99.90
8780;DHT22;62328;51.19929245;4.42130175;2023-06-22T06:29:10;22.20;99.90
8780;DHT22;62328;51.19929245;4.42130175;2023-06-22T06:31:38;22.20;99.90
8780;DHT22;62328;51.19929245;4.42130175;2023-06-22T06:34:05;22.20;99.90
8780;DHT22;62328;51.19929245;4.42130175;2023-06-22T06:36:34;22.20;99.90
8780;DHT22;62328;51.19929245;4.42130175;2023-06-22T06:39:01;22.30;99.90
8780;DHT22;62328;51.19929245;4.42130175;2023-06-22T06:41:29;22.30;99.90
8780;DHT22;62328;51.19929245;4.42130175;2023-06-22T06:43:56;22.30;99.90
8780;DHT22;62328;51.19929245;4.42130175;2023-06-22T06:46:24;22.30;99.90
8780;DHT22;62328;51.19929245;4.42130175;2023-06-22T06:48:51;22.40;99.90
8780;DHT22;62328;51.19929245;4.42130175;2023-06-22T06:51:18;22.50;99.90
8780;DHT22;62328;51.19929245;4.42130175;2023-06-22T06:53:47;22.50;99.90
8780;DHT22;62328;51.19929245;4.42130175;2023-06-22T06:56:14;22.60;99.90
8780;DHT22;62328;51.19929245;4.42130175;2023-06-22T06:58:42;22.60;99.90
8780;DHT22;62328;51.19929245;4.42130175;2023-06-22T07:01:11;22.60;99.90
8780;DHT22;62328;51.19929245;4.42130175;2023-06-22T07:03:38;22.60;99.90
8780;DHT22;62328;51.19929245;4.42130175;2023-06-22T07:06:06;22.60;99.90
8780;DHT22;62328;51.19929245;4.42130175;2023-06-22T07:08:34;22.60;99.90
8780;DHT22;62328;51.19929245;4.42130175;2023-06-22T07:11:05;22.60;99.90
8780;DHT22;62328;51.19929245;4.42130175;2023-06-22T07:13:32;22.70;99.90
8780;DHT22;62328;51.19929245;4.42130175;2023-06-22T07:16:00;22.70;99.90
8780;DHT22;62328;51.19929245;4.42130175;2023-06-22T07:18:28;22.70;99.90
8780;DHT22;62328;51.19929245;4.42130175;2023-06-22T07:20:56;22.80;99.90
8780;DHT22;62328;51.19929245;4.42130175;2023-06-22T07:23:24;22.80;99.90
8780;DHT22;62328;51.19929245;4.42130175;2023-06-22T07:25:51;22.80;99.90
8780;DHT22;62328;51.19929245;4.42130175;2023-06-22T07:28:20;22.80;99.90
8780;DHT22;62328;51.19929245;4.42130175;2023-06-22T07:30:47;22.80;99.90
8780;DHT22;62328;51.19929245;4.42130175;2023-06-22T07:33:14;22.90;99.90
8780;DHT22;62328;51.19929245;4.42130175;2023-06-22T07:35:43;22.90;99.90
8780;DHT22;62328;51.19929245;4.42130175;2023-06-22T07:38:10;23.00;99.90
8780;DHT22;62328;51.19929245;4.42130175;2023-06-22T07:40:38;23.00;99.90
8780;DHT22;62328;51.19929245;4.42130175;2023-06-22T07:43:08;23.00;99.90
8780;DHT22;62328;51.19929245;4.42130175;2023-06-22T07:45:38;23.10;99.90
8780;DHT22;62328;51.19929245;4.42130175;2023-06-22T07:48:07;23.10;99.90
8780;DHT22;62328;51.19929245;4.42130175;2023-06-22T07:50:34;23.20;99.90
8780;DHT22;62328;51.19929245;4.42130175;2023-06-22T07:53:01;23.20;99.90
8780;DHT22;62328;51.19929245;4.42130175;2023-06-22T07:55:28;23.20;99.90
8780;DHT22;62328;51.19929245;4.42130175;2023-06-22T07:57:56;23.30;99.90
8780;DHT22;62328;51.19929245;4.42130175;2023-06-22T08:00:24;23.20;99.90
8780;DHT22;62328;51.19929245;4.42130175;2023-06-22T08:02:52;23.10;99.90
8780;DHT22;62328;51.19929245;4.42130175;2023-06-22T08:05:23;23.10;99.90
8780;DHT22;62328;51.19929245;4.42130175;2023-06-22T08:07:50;23.00;99.90
8780;DHT22;62328;51.19929245;4.42130175;2023-06-22T08:10:17;23.00;99.90
8780;DHT22;62328;51.19929245;4.42130175;2023-06-22T08:12:44;22.90;99.90
8780;DHT22;62328;51.19929245;4.42130175;2023-06-22T08:15:11;22.80;99.90
8780;DHT22;62328;51.19929245;4.42130175;2023-06-22T08:17:39;22.80;99.90
8780;DHT22;62328;51.19929245;4.42130175;2023-06-22T08:20:09;22.80;99.90
8780;DHT22;62328;51.19929245;4.42130175;2023-06-22T08:22:38;22.80;99.90
8780;DHT22;62328;51.19929245;4.42130175;2023-06-22T08:25:06;22.80;99.90
8780;DHT22;62328;51.19929245;4.42130175;2023-06-22T08:27:34;22.90;99.90
8780;DHT22;62328;51.19929245;4.42130175;2023-06-22T08:30:03;22.90;99.90
8780;DHT22;62328;51.19929245;4.42130175;2023-06-22T08:32:31;23.00;99.90
8780;DHT22;62328;51.19929245;4.42130175;2023-06-22T08:34:59;23.00;99.90
8780;DHT22;62328;51.19929245;4.42130175;2023-06-22T08:37:28;23.00;99.90
8780;DHT22;62328;51.19929245;4.42130175;2023-06-22T08:39:58;22.90;99.90
8780;DHT22;62328;51.19929245;4.42130175;2023-06-22T08:42:25;22.90;99.90
8780;DHT22;62328;51.19929245;4.42130175;2023-06-22T08:44:53;23.00;99.90
8780;DHT22;62328;51.19929245;4.42130175;2023-06-22T08:47:20;23.00;99.90
8780;DHT22;62328;51.19929245;4.42130175;2023-06-22T08:49:48;23.00;99.90
8780;DHT22;62328;51.19929245;4.42130175;2023-06-22T08:52:17;23.10;99.90
8780;DHT22;62328;51.19929245;4.42130175;2023-06-22T08:54:47;23.10;99.90
8780;DHT22;62328;51.19929245;4.42130175;2023-06-22T08:57:14;23.10;99.90
8780;DHT22;62328;51.19929245;4.42130175;2023-06-22T08:59:42;23.10;99.90
8780;DHT22;62328;51.19929245;4.42130175;2023-06-22T09:02:10;23.10;99.90
8780;DHT22;62328;51.19929245;4.42130175;2023-06-22T09:04:37;23.10;99.90
8780;DHT22;62328;51.19929245;4.42130175;2023-06-22T09:07:05;23.10;99.90
8780;DHT22;62328;51.19929245;4.42130175;2023-06-22T09:09:33;23.10;99.90
8780;DHT22;62328;51.19929245;4.42130175;2023-06-22T09:12:01;23.10;99.90
8780;DHT22;62328;51.19929245;4.42130175;2023-06-22T09:14:28;23.10;99.90
8780;DHT22;62328;51.19929245;4.42130175;2023-06-22T09:16:55;23.10;99.90
8780;DHT22;62328;51.19929245;4.42130175;2023-06-22T09:19:22;23.10;99.90
8780;DHT22;62328;51.19929245;4.42130175;2023-06-22T09:21:50;23.10;99.90
8780;DHT22;62328;51.19929245;4.42130175;2023-06-22T09:24:17;23.10;99.90
8780;DHT22;62328;51.19929245;4.42130175;2023-06-22T09:26:44;23.10;99.90
8780;DHT22;62328;51.19929245;4.42130175;2023-06-22T09:29:13;23.10;99.90
8780;DHT22;62328;51.19929245;4.42130175;2023-06-22T09:31:40;23.00;99.90
8780;DHT22;62328;51.19929245;4.42130175;2023-06-22T09:34:07;23.00;99.90
8780;DHT22;62328;51.19929245;4.42130175;2023-06-22T09:36:34;22.90;99.90
8780;DHT22;62328;51.19929245;4.42130175;2023-06-22T09:39:02;22.90;99.90
8780;DHT22;62328;51.19929245;4.42130175;2023-06-22T09:41:32;22.90;99.90
8780;DHT22;62328;51.19929245;4.42130175;2023-06-22T09:43:59;23.00;99.90
8780;DHT22;62328;51.19929245;4.42130175;2023-06-22T09:46:27;22.90;99.90
8780;DHT22;62328;51.19929245;4.42130175;2023-06-22T09:48:55;22.90;99.90
8780;DHT22;62328;51.19929245;4.42130175;2023-06-22T09:51:22;22.90;99.90
8780;DHT22;62328;51.19929245;4.42130175;2023-06-22T09:53:49;22.90;99.90
8780;DHT22;62328;51.19929245;4.42130175;2023-06-22T09:56:17;22.90;99.90
8780;DHT22;62328;51.19929245;4.42130175;2023-06-22T09:58:45;22.90;99.90
8780;DHT22;62328;51.19929245;4.42130175;2023-06-22T10:01:13;22.90;99.90
8780;DHT22;62328;51.19929245;4.42130175;2023-06-22T10:03:42;22.90;99.90
8780;DHT22;62328;51.19929245;4.42130175;2023-06-22T10:06:09;22.90;99.90
8780;DHT22;62328;51.19929245;4.42130175;2023-06-22T10:08:36;22.80;99.90
8780;DHT22;62328;51.19929245;4.42130175;2023-06-22T10:11:03;22.80;99.90
8780;DHT22;62328;51.19929245;4.42130175;2023-06-22T10:13:30;22.70;99.90
8780;DHT22;62328;51.19929245;4.42130175;2023-06-22T10:15:57;22.70;99.90
8780;DHT22;62328;51.19929245;4.42130175;2023-06-22T10:18:24;22.60;99.90
8780;DHT22;62328;51.19929245;4.42130175;2023-06-22T10:20:53;22.60;99.90
8780;DHT22;62328;51.19929245;4.42130175;2023-06-22T10:23:20;22.50;99.90
8780;DHT22;62328;51.19929245;4.42130175;2023-06-22T10:25:47;22.50;99.90
8780;DHT22;62328;51.19929245;4.42130175;2023-06-22T10:28:15;22.40;99.90
8780;DHT22;62328;51.19929245;4.42130175;2023-06-22T10:30:42;22.40;99.90
8780;DHT22;62328;51.19929245;4.42130175;2023-06-22T10:33:10;22.30;99.90
8780;DHT22;62328;51.19929245;4.42130175;2023-06-22T10:35:38;22.30;99.90
8780;DHT22;62328;51.19929245;4.42130175;2023-06-22T10:38:07;22.20;99.90
8780;DHT22;62328;51.19929245;4.42130175;2023-06-22T10:40:35;22.20;99.90
8780;DHT22;62328;51.19929245;4.42130175;2023-06-22T10:43:02;22.20;99.90
8780;DHT22;62328;51.19929245;4.42130175;2023-06-22T10:45:29;22.10;99.90
8780;DHT22;62328;51.19929245;4.42130175;2023-06-22T10:47:57;22.10;99.90
8780;DHT22;62328;51.19929245;4.42130175;2023-06-22T10:50:25;22.10;99.90
8780;DHT22;62328;51.19929245;4.42130175;2023-06-22T10:52:53;22.10;99.90
8780;DHT22;62328;51.19929245;4.42130175;2023-06-22T10:55:22;22.00;99.90
8780;DHT22;62328;51.19929245;4.42130175;2023-06-22T10:57:50;22.00;99.90
8780;DHT22;62328;51.19929245;4.42130175;2023-06-22T11:00:18;21.90;99.90
8780;DHT22;62328;51.19929245;4.42130175;2023-06-22T11:02:45;21.80;99.90
8780;DHT22;62328;51.19929245;4.42130175;2023-06-22T11:05:12;21.80;99.90
8780;DHT22;62328;51.19929245;4.42130175;2023-06-22T11:07:42;21.80;99.90
8780;DHT22;62328;51.19929245;4.42130175;2023-06-22T11:10:09;21.70;99.90
8780;DHT22;62328;51.19929245;4.42130175;2023-06-22T11:12:38;21.70;99.90
8780;DHT22;62328;51.19929245;4.42130175;2023-06-22T11:15:06;21.70;99.90
8780;DHT22;62328;51.19929245;4.42130175;2023-06-22T11:17:33;21.60;99.90
8780;DHT22;62328;51.19929245;4.42130175;2023-06-22T11:20:01;21.60;99.90
8780;DHT22;62328;51.19929245;4.42130175;2023-06-22T11:22:33;21.60;99.90
8780;DHT22;62328;51.19929245;4.42130175;2023-06-22T11:25:01;21.60;99.90
8780;DHT22;62328;51.19929245;4.42130175;2023-06-22T11:27:28;21.50;99.90
8780;DHT22;62328;51.19929245;4.42130175;2023-06-22T11:29:56;21.50;99.90
8780;DHT22;62328;51.19929245;4.42130175;2023-06-22T11:32:23;21.50;99.90
8780;DHT22;62328;51.19929245;4.42130175;2023-06-22T11:34:50;21.50;99.90
8780;DHT22;62328;51.19929245;4.42130175;2023-06-22T11:37:19;21.50;99.90
8780;DHT22;62328;51.19929245;4.42130175;2023-06-22T11:39:46;21.50;99.90
8780;DHT22;62328;51.19929245;4.42130175;2023-06-22T11:42:14;21.50;99.90
8780;DHT22;62328;51.19929245;4.42130175;2023-06-22T11:44:42;21.50;99.90
8780;DHT22;62328;51.19929245;4.42130175;2023-06-22T11:47:10;21.50;99.90
8780;DHT22;62328;51.19929245;4.42130175;2023-06-22T11:49:38;21.50;99.90
8780;DHT22;62328;51.19929245;4.42130175;2023-06-22T11:52:06;21.50;99.90
8780;DHT22;62328;51.19929245;4.42130175;2023-06-22T11:54:33;21.50;99.90
8780;DHT22;62328;51.19929245;4.42130175;2023-06-22T11:57:00;21.60;99.90
8780;DHT22;62328;51.19929245;4.42130175;2023-06-22T11:59:27;21.60;99.90
8780;DHT22;62328;51.19929245;4.42130175;2023-06-22T12:01:54;21.60;99.90
8780;DHT22;62328;51.19929245;4.42130175;2023-06-22T12:04:23;21.50;99.90
8780;DHT22;62328;51.19929245;4.42130175;2023-06-22T12:06:50;21.50;99.90
8780;DHT22;62328;51.19929245;4.42130175;2023-06-22T12:09:17;21.50;99.90
8780;DHT22;62328;51.19929245;4.42130175;2023-06-22T12:11:44;21.50;99.90
8780;DHT22;62328;51.19929245;4.42130175;2023-06-22T12:14:12;21.40;99.90
8780;DHT22;62328;51.19929245;4.42130175;2023-06-22T12:16:39;21.40;99.90
8780;DHT22;62328;51.19929245;4.42130175;2023-06-22T12:19:09;21.40;99.90
8780;DHT22;62328;51.19929245;4.42130175;2023-06-22T12:21:39;21.30;99.90
8780;DHT22;62328;51.19929245;4.42130175;2023-06-22T12:24:06;21.20;99.90
8780;DHT22;62328;51.19929245;4.42130175;2023-06-22T12:26:34;21.20;99.90
8780;DHT22;62328;51.19929245;4.42130175;2023-06-22T12:29:01;21.10;99.90
8780;DHT22;62328;51.19929245;4.42130175;2023-06-22T12:31:28;21.10;99.90
8780;DHT22;62328;51.19929245;4.42130175;2023-06-22T12:33:56;21.00;99.90
8780;DHT22;62328;51.19929245;4.42130175;2023-06-22T12:36:23;20.90;99.90
8780;DHT22;62328;51.19929245;4.42130175;2023-06-22T12:38:51;20.90;99.90
8780;DHT22;62328;51.19929245;4.42130175;2023-06-22T12:41:19;20.80;99.90
8780;DHT22;62328;51.19929245;4.42130175;2023-06-22T12:43:47;20.80;99.90
8780;DHT22;62328;51.19929245;4.42130175;2023-06-22T12:46:14;20.80;99.90
8780;DHT22;62328;51.19929245;4.42130175;2023-06-22T12:48:42;20.80;99.90
8780;DHT22;62328;51.19929245;4.42130175;2023-06-22T12:51:10;20.80;99.90
8780;DHT22;62328;51.19929245;4.42130175;2023-06-22T12:53:37;20.70;99.90
8780;DHT22;62328;51.19929245;4.42130175;2023-06-22T12:56:06;20.70;99.90
8780;DHT22;62328;51.19929245;4.42130175;2023-06-22T12:58:33;20.70;99.90
8780;DHT22;62328;51.19929245;4.42130175;2023-06-22T13:01:01;20.70;99.90
8780;DHT22;62328;51.19929245;4.42130175;2023-06-22T13:03:28;20.70;99.90
8780;DHT22;62328;51.19929245;4.42130175;2023-06-22T13:05:55;20.70;99.90
8780;DHT22;62328;51.19929245;4.42130175;2023-06-22T13:08:22;20.60;99.90
8780;DHT22;62328;51.19929245;4.42130175;2023-06-22T13:10:49;20.60;99.90
8780;DHT22;62328;51.19929245;4.42130175;2023-06-22T13:13:18;20.60;99.90
8780;DHT22;62328;51.19929245;4.42130175;2023-06-22T13:15:45;20.60;99.90
8780;DHT22;62328;51.19929245;4.42130175;2023-06-22T13:18:13;20.60;99.90
8780;DHT22;62328;51.19929245;4.42130175;2023-06-22T13:20:40;20.60;99.90
8780;DHT22;62328;51.19929245;4.42130175;2023-06-22T13:23:07;20.60;99.90
8780;DHT22;62328;51.19929245;4.42130175;2023-06-22T13:25:36;20.60;99.90
8780;DHT22;62328;51.19929245;4.42130175;2023-06-22T13:28:03;20.50;99.90
8780;DHT22;62328;51.19929245;4.42130175;2023-06-22T13:30:32;20.50;99.90
8780;DHT22;62328;51.19929245;4.42130175;2023-06-22T13:32:59;20.50;99.90
8780;DHT22;62328;51.19929245;4.42130175;2023-06-22T13:35:27;20.50;99.90
8780;DHT22;62328;51.19929245;4.42130175;2023-06-22T13:37:54;20.50;99.90
8780;DHT22;62328;51.19929245;4.42130175;2023-06-22T13:40:21;20.50;99.90